Time;durP1;ratioP1;P1;durP2;ratioP2;P2;SDS_P1;SDS_P2;PMS_P1;PMS_P2;Temp;Humidity;BMP_temperature;BMP_pressure;BME280_temperature;BME280_humidity;BME280_pressure;Samples;Min_cycle;Max_cycle;Signal;HPM_P1;HPM_P2
2021/10/27 00:01:19;;;;;;;18.70;10.88;;;;;;;11.34;55.59;102225.13;5014206;28;20123;-61
2021/10/27 00:03:46;;;;;;;13.82;10.38;;;;;;;11.30;55.75;102220.03;5013835;28;20418;-61
2021/10/27 00:06:12;;;;;;;14.52;9.80;;;;;;;11.24;55.97;102219.34;5014149;28;20057;-61
2021/10/27 00:08:39;;;;;;;18.13;10.55;;;;;;;11.20;56.00;102230.00;5012266;28;20061;-61
2021/10/27 00:11:06;;;;;;;15.38;10.60;;;;;;;11.13;56.05;102223.28;5012191;28;20089;-61
2021/10/27 00:13:33;;;;;;;15.77;10.50;;;;;;;11.08;56.13;102226.03;5026415;28;20453;-62
2021/10/27 00:16:02;;;;;;;15.93;10.98;;;;;;;11.07;55.98;102216.44;5033646;28;20050;-61
2021/10/27 00:18:29;;;;;;;16.73;11.27;;;;;;;11.05;56.03;102215.66;5033707;28;20051;-62
2021/10/27 00:20:56;;;;;;;18.65;11.35;;;;;;;11.09;56.07;102219.88;5033467;28;20049;-62
2021/10/27 00:23:22;;;;;;;16.60;11.15;;;;;;;11.10;56.02;102224.22;5033544;28;20053;-62
2021/10/27 00:25:49;;;;;;;14.55;11.15;;;;;;;11.10;56.10;102222.44;5033410;28;20072;-62
2021/10/27 00:28:16;;;;;;;14.75;10.90;;;;;;;11.13;56.00;102228.53;5033397;28;20052;-62
2021/10/27 00:30:42;;;;;;;18.48;12.18;;;;;;;11.10;56.10;102226.88;5032761;28;20041;-61
2021/10/27 00:33:09;;;;;;;17.30;10.70;;;;;;;11.10;56.23;102218.97;5033443;28;20144;-61
2021/10/27 00:35:35;;;;;;;16.73;10.65;;;;;;;11.08;56.28;102226.03;5033203;28;20453;-61
2021/10/27 00:38:02;;;;;;;14.38;10.35;;;;;;;11.02;56.29;102226.25;5033227;28;20510;-64
2021/10/27 00:40:29;;;;;;;14.05;10.18;;;;;;;10.98;56.36;102227.28;5033169;28;20073;-62
2021/10/27 00:42:56;;;;;;;16.00;10.65;;;;;;;10.93;56.37;102230.94;5032980;28;20049;-61
2021/10/27 00:45:23;;;;;;;16.27;11.15;;;;;;;10.93;56.39;102223.06;5032987;28;20552;-61
2021/10/27 00:47:50;;;;;;;18.42;11.25;;;;;;;10.92;56.40;102215.22;5032963;28;20450;-61
2021/10/27 00:50:17;;;;;;;17.50;11.00;;;;;;;10.93;56.33;102220.44;5033143;28;20049;-61
2021/10/27 00:52:44;;;;;;;16.55;11.38;;;;;;;10.91;56.38;102218.75;5032965;28;20049;-61
2021/10/27 00:55:11;;;;;;;16.80;11.55;;;;;;;10.87;56.46;102217.13;5032922;28;20046;-61
2021/10/27 00:57:37;;;;;;;15.20;11.48;;;;;;;10.90;56.40;102214.41;5032405;28;20053;-61
2021/10/27 01:00:06;;;;;;;16.67;11.25;;;;;;;10.90;56.46;102215.25;5013172;28;20050;-62
2021/10/27 01:02:33;;;;;;;16.00;11.05;;;;;;;10.88;56.54;102217.09;5012914;28;20461;-61
2021/10/27 01:05:00;;;;;;;15.13;10.48;;;;;;;10.93;56.41;102214.28;5012830;28;20062;-61
2021/10/27 01:07:26;;;;;;;15.13;11.25;;;;;;;10.90;56.53;102219.66;5013051;28;20490;-62
2021/10/27 01:09:53;;;;;;;16.60;10.43;;;;;;;10.87;56.46;102217.13;5012993;28;20049;-61
2021/10/27 01:12:20;;;;;;;15.45;10.40;;;;;;;10.84;56.46;102214.63;5012883;28;20065;-62
2021/10/27 01:14:47;;;;;;;17.00;10.18;;;;;;;10.84;56.53;102217.25;5012810;28;20054;-61
2021/10/27 01:17:16;;;;;;;14.05;11.00;;;;;;;10.83;56.18;102215.53;5012781;28;20561;-61
2021/10/27 01:19:46;;;;;;;14.48;10.35;;;;;;;10.81;56.69;102206.84;5012832;28;20046;-61
2021/10/27 01:22:14;;;;;;;16.83;11.00;;;;;;;10.81;56.67;102207.72;5012756;28;20088;-61
2021/10/27 01:24:41;;;;;;;15.98;11.63;;;;;;;10.82;56.58;102208.56;5012658;28;20093;-62
2021/10/27 01:27:08;;;;;;;13.77;9.77;;;;;;;10.81;56.57;102210.34;5031660;28;20052;-61
2021/10/27 01:29:35;;;;;;;16.50;10.65;;;;;;;10.78;56.63;102216.53;5032382;28;20548;-61
2021/10/27 01:32:03;;;;;;;14.75;10.52;;;;;;;10.76;56.65;102209.63;5032419;28;20103;-62
2021/10/27 01:34:30;;;;;;;13.23;9.98;;;;;;;10.74;56.59;102208.81;5032407;28;20049;-62
2021/10/27 01:36:56;;;;;;;14.25;10.52;;;;;;;10.69;56.56;102206.38;5032137;28;20387;-61
2021/10/27 01:39:24;;;;;;;13.98;9.85;;;;;;;10.72;56.42;102197.53;5032356;28;20050;-61
2021/10/27 01:41:51;;;;;;;13.65;10.75;;;;;;;10.70;56.54;102197.56;5031578;28;20045;-62
2021/10/27 01:44:17;;;;;;;14.57;10.15;;;;;;;10.71;56.29;102196.66;5032329;28;20435;-61
2021/10/27 01:46:44;;;;;;;16.17;9.25;;;;;;;10.73;56.26;102201.88;5034902;28;20049;-65
2021/10/27 01:49:12;;;;;;;13.77;9.57;;;;;;;10.70;56.39;102199.34;5036598;28;20045;-62
2021/10/27 01:51:40;;;;;;;17.60;9.48;;;;;;;10.69;56.33;102197.59;5036260;28;20099;-61
2021/10/27 01:54:07;;;;;;;13.23;9.98;;;;;;;10.65;56.47;102194.22;5036351;28;20054;-62
2021/10/27 01:56:34;;;;;;;19.65;10.32;;;;;;;10.66;56.39;102195.09;5035772;28;20490;-61
2021/10/27 01:59:01;;;;;;;14.00;9.82;;;;;;;10.65;56.53;102194.22;5036229;28;20077;-61
2021/10/27 02:01:27;;;;;;;14.88;9.93;;;;;;;10.65;56.46;102191.59;5036124;28;20048;-62
2021/10/27 02:03:55;;;;;;;15.00;9.45;;;;;;;10.64;56.45;102195.16;5035990;28;20127;-62
2021/10/27 02:06:22;;;;;;;15.23;9.90;;;;;;;10.60;56.63;102196.16;5036088;28;20049;-61
2021/10/27 02:08:48;;;;;;;13.57;9.00;;;;;;;10.59;56.55;102203.19;5035938;28;20123;-62
2021/10/27 02:11:15;;;;;;;13.85;9.95;;;;;;;10.56;56.71;102195.41;5036098;28;20494;-61
2021/10/27 02:13:51;;;;;;;;;;;;;;;10.55;56.64;102196.31;5035829;28;20041;-62
2021/10/27 02:16:17;;;;;;;11.38;8.95;;;;;;;10.57;56.69;102202.34;5035716;28;20416;-65
2021/10/27 02:18:44;;;;;;;16.13;10.68;;;;;;;10.55;56.76;102198.94;5035696;28;20049;-62
2021/10/27 02:21:11;;;;;;;15.80;9.57;;;;;;;10.55;56.76;102203.31;5035820;28;20049;-62
2021/10/27 02:23:37;;;;;;;13.90;9.23;;;;;;;10.55;56.80;102203.31;5035564;28;20050;-61
2021/10/27 02:26:04;;;;;;;16.35;8.43;;;;;;;10.55;56.70;102191.06;5035645;28;20057;-61
2021/10/27 02:28:31;;;;;;;12.80;8.85;;;;;;;10.54;56.86;102194.59;5034969;28;20486;-62
2021/10/27 02:30:57;;;;;;;13.82;9.00;;;;;;;10.53;56.82;102189.41;5035447;28;20103;-61
2021/10/27 02:33:24;;;;;;;13.55;9.18;;;;;;;10.49;56.92;102182.53;5033866;28;20456;-62
2021/10/27 02:35:51;;;;;;;12.07;8.77;;;;;;;10.47;56.71;102194.84;5035304;28;20544;-61
2021/10/27 02:38:38;;;;;;;12.93;8.80;;;;;;;10.47;56.88;102195.69;5035311;28;20508;-61
2021/10/27 02:41:05;;;;;;;15.48;8.57;;;;;;;10.47;56.80;102197.47;5035671;28;20067;-60
2021/10/27 02:43:32;;;;;;;15.82;9.15;;;;;;;10.44;56.70;102195.81;5035343;28;20083;-61
2021/10/27 02:45:58;;;;;;;12.90;8.15;;;;;;;10.43;56.88;102191.47;5035303;28;20087;-62
2021/10/27 02:48:25;;;;;;;12.85;8.65;;;;;;;10.41;56.92;102195.91;5035340;28;20045;-61
2021/10/27 02:50:52;;;;;;;13.85;8.82;;;;;;;10.37;57.02;102192.50;5035245;28;20057;-62
2021/10/27 02:53:18;;;;;;;11.07;7.68;;;;;;;10.35;56.94;102193.44;5035206;28;20099;-61
2021/10/27 02:55:45;;;;;;;12.82;8.13;;;;;;;10.34;57.13;102197.84;5035022;28;20049;-61
2021/10/27 02:58:12;;;;;;;12.55;8.43;;;;;;;10.31;57.27;102200.56;5034712;28;20504;-61
2021/10/27 03:00:39;;;;;;;11.43;7.68;;;;;;;10.26;57.21;102208.59;5034989;28;20045;-61
2021/10/27 03:03:06;;;;;;;13.82;8.23;;;;;;;10.26;57.21;102205.97;5033307;28;20042;-61
2021/10/27 03:05:32;;;;;;;14.27;8.52;;;;;;;10.25;57.23;102206.84;5029888;28;20053;-61
2021/10/27 03:07:59;;;;;;;12.23;8.80;;;;;;;10.18;57.56;102202.69;5031807;28;20544;-62
2021/10/27 03:10:26;;;;;;;14.48;9.20;;;;;;;10.19;57.52;102211.44;5030396;28;20502;-61
2021/10/27 03:12:53;;;;;;;14.18;8.57;;;;;;;10.16;57.31;102207.16;5030779;28;20053;-61
2021/10/27 03:15:19;;;;;;;13.73;8.95;;;;;;;10.16;57.59;102201.03;5031314;28;20045;-62
2021/10/27 03:17:46;;;;;;;14.73;8.45;;;;;;;10.16;57.50;102199.28;5031854;28;20513;-61
2021/10/27 03:20:13;;;;;;;14.35;8.48;;;;;;;10.16;57.60;102201.03;5031904;28;20045;-60
2021/10/27 03:22:40;;;;;;;17.73;8.77;;;;;;;10.12;57.68;102210.78;5031349;28;20457;-62
2021/10/27 03:25:07;;;;;;;14.73;8.55;;;;;;;10.10;57.79;102207.34;5031263;28;20045;-61
2021/10/27 03:27:33;;;;;;;15.30;8.95;;;;;;;10.11;57.72;102198.56;5031349;28;20115;-61
2021/10/27 03:30:00;;;;;;;13.77;8.25;;;;;;;10.07;57.67;102202.22;5030669;28;20452;-62
2021/10/27 03:32:27;;;;;;;12.98;8.80;;;;;;;10.02;57.99;102204.09;5031358;28;20054;-61
2021/10/27 03:34:55;;;;;;;12.38;8.90;;;;;;;10.02;57.85;102204.97;5031157;28;20049;-61
2021/10/27 03:37:22;;;;;;;12.48;7.85;;;;;;;10.00;57.83;102198.03;5031194;28;20089;-61
2021/10/27 03:39:49;;;;;;;12.57;8.15;;;;;;;9.97;57.88;102201.63;5031012;28;20041;-61
2021/10/27 03:42:16;;;;;;;17.52;8.65;;;;;;;9.92;57.99;102203.53;5031199;28;20080;-61
2021/10/27 03:44:43;;;;;;;15.20;8.10;;;;;;;9.88;58.03;102213.25;5031008;28;20053;-61
2021/10/27 03:47:10;;;;;;;11.18;8.02;;;;;;;9.91;58.05;102205.28;5030272;28;20766;-64
2021/10/27 03:49:37;;;;;;;12.57;7.60;;;;;;;9.89;58.17;102207.09;5031141;28;20053;-61
2021/10/27 03:52:04;;;;;;;14.25;8.50;;;;;;;9.85;58.33;102209.84;5030679;28;20045;-62
2021/10/27 03:54:31;;;;;;;11.80;7.97;;;;;;;9.83;58.31;102209.03;5030657;28;20096;-61
2021/10/27 03:56:58;;;;;;;14.52;8.88;;;;;;;9.85;58.32;102212.47;5030569;28;20081;-61
2021/10/27 03:59:25;;;;;;;15.57;8.05;;;;;;;9.78;58.29;102212.66;5030889;28;20107;-61
2021/10/27 04:01:52;;;;;;;18.40;8.90;;;;;;;9.75;58.45;102217.13;5030470;28;20107;-61
2021/10/27 04:04:18;;;;;;;12.13;7.28;;;;;;;9.71;58.58;102211.09;5030226;28;20053;-61
2021/10/27 04:06:45;;;;;;;12.43;7.85;;;;;;;9.72;58.44;102219.84;5029826;28;20569;-60
2021/10/27 04:09:12;;;;;;;12.95;7.88;;;;;;;9.69;58.51;102220.78;5030069;28;20057;-61
2021/10/27 04:11:38;;;;;;;12.35;7.55;;;;;;;9.67;58.71;102219.97;5030285;28;20046;-61
2021/10/27 04:14:05;;;;;;;12.57;8.13;;;;;;;9.68;58.65;102218.22;5030538;28;20472;-61
2021/10/27 04:16:32;;;;;;;16.95;7.88;;;;;;;9.64;58.62;102223.53;5030413;28;20080;-61
2021/10/27 04:18:58;;;;;;;13.60;8.40;;;;;;;9.60;58.52;102232.41;5029732;28;20145;-65
2021/10/27 04:21:25;;;;;;;16.58;8.10;;;;;;;9.54;58.81;102232.56;5029222;28;20045;-61
2021/10/27 04:23:52;;;;;;;13.88;7.72;;;;;;;9.51;58.59;102229.19;5030144;28;20490;-59
2021/10/27 04:26:18;;;;;;;14.20;7.90;;;;;;;9.45;58.51;102228.44;5029784;28;20395;-59
2021/10/27 04:28:45;;;;;;;11.73;7.50;;;;;;;9.46;58.39;102224.09;5030300;28;20075;-59
2021/10/27 04:31:12;;;;;;;12.63;7.55;;;;;;;9.46;58.46;102238.03;5030237;28;20490;-59
2021/10/27 04:33:38;;;;;;;12.68;7.13;;;;;;;9.48;58.37;102237.97;5029912;28;20428;-58
2021/10/27 04:36:05;;;;;;;12.15;7.10;;;;;;;9.48;58.34;102232.75;5030107;28;20521;-58
2021/10/27 04:38:31;;;;;;;18.35;7.95;;;;;;;9.46;58.47;102242.44;5029970;28;20556;-59
2021/10/27 04:40:58;;;;;;;14.68;7.97;;;;;;;9.46;58.55;102245.03;5029856;28;20049;-58
2021/10/27 04:43:25;;;;;;;11.60;7.22;;;;;;;9.43;58.74;102237.25;5029454;28;20107;-59
2021/10/27 04:45:52;;;;;;;13.45;7.65;;;;;;;9.45;58.54;102246.78;5029686;28;20045;-59
2021/10/27 04:48:18;;;;;;;11.88;6.70;;;;;;;9.47;58.61;102242.38;5029497;28;20548;-59
2021/10/27 04:50:46;;;;;;;12.85;7.13;;;;;;;9.48;58.68;102243.22;5029440;28;20041;-59
2021/10/27 04:53:15;;;;;;;8.98;6.80;;;;;;;9.48;58.93;102237.97;5029923;28;20057;-63
2021/10/27 04:55:42;;;;;;;14.23;6.93;;;;;;;9.48;59.15;102235.38;5029579;28;20049;-61
2021/10/27 04:58:09;;;;;;;12.00;7.65;;;;;;;9.45;59.17;102238.09;5028625;28;20077;-59
2021/10/27 05:00:36;;;;;;;13.57;7.50;;;;;;;9.46;59.25;102247.66;5028921;28;20570;-61
2021/10/27 05:03:04;;;;;;;15.88;7.43;;;;;;;9.46;59.13;102237.19;5029449;28;20124;-63
2021/10/27 05:05:33;;;;;;;11.90;6.82;;;;;;;9.47;59.17;102241.50;5028394;28;20099;-59
2021/10/27 05:08:02;;;;;;;13.70;6.72;;;;;;;9.41;59.28;102241.69;5029451;28;20065;-60
2021/10/27 05:10:28;;;;;;;11.85;6.50;;;;;;;9.39;59.24;102243.50;5029523;28;20045;-59
2021/10/27 05:12:55;;;;;;;14.57;6.72;;;;;;;9.31;59.34;102254.19;5029355;28;20049;-61
2021/10/27 05:15:22;;;;;;;12.40;6.95;;;;;;;9.29;59.36;102249.00;5028506;28;20494;-58
2021/10/27 05:18:02;;;;;;;10.20;6.90;;;;;;;9.26;59.39;102263.91;5028910;28;20057;-59
2021/10/27 05:20:40;;;;;;;12.27;6.90;;;;;;;9.26;59.36;102256.06;5008548;28;20081;-63
2021/10/27 05:23:13;;;;;;;9.55;6.43;;;;;;;9.25;59.42;102256.97;5009200;28;20478;-60
2021/10/27 05:25:40;;;;;;;12.82;7.32;;;;;;;9.23;59.49;102264.88;5009171;28;20052;-59
2021/10/27 05:28:07;;;;;;;13.80;8.07;;;;;;;9.21;59.26;102263.19;5009431;28;20077;-59
2021/10/27 05:30:34;;;;;;;14.45;6.75;;;;;;;9.19;59.47;102259.72;5009086;28;20050;-60
2021/10/27 05:33:00;;;;;;;11.30;6.88;;;;;;;9.20;59.43;102266.69;5014700;28;20049;-58
2021/10/27 05:35:29;;;;;;;15.65;7.10;;;;;;;9.21;59.38;102268.44;5028980;28;20164;-59
2021/10/27 05:37:57;;;;;;;13.45;6.70;;;;;;;9.18;59.51;102268.47;5028734;28;20054;-64
2021/10/27 05:40:24;;;;;;;10.95;7.30;;;;;;;9.20;59.54;102272.78;5028956;28;20882;-59
2021/10/27 05:42:52;;;;;;;19.38;9.23;;;;;;;9.22;59.71;102270.13;5028964;28;20046;-62
2021/10/27 05:45:22;;;;;;;20.30;8.88;;;;;;;9.21;59.82;102271.03;5028944;28;20045;-60
2021/10/27 05:47:56;;;;;;;19.65;8.07;;;;;;;9.20;59.88;102288.50;5028641;28;20444;-60
2021/10/27 05:50:31;;;;;;;18.73;8.10;;;;;;;9.18;59.99;102277.22;5028124;28;20402;-60
2021/10/27 05:55:43;;;;;;;35.42;19.75;;;;;;;9.12;59.83;102278.22;5028738;28;20045;-64
2021/10/27 05:58:11;;;;;;;20.33;9.70;;;;;;;9.15;60.02;102285.13;5028378;28;20053;-61
2021/10/27 06:00:39;;;;;;;14.38;9.10;;;;;;;9.10;59.99;102287.91;5028287;28;20456;-61
2021/10/27 06:03:06;;;;;;;18.73;7.97;;;;;;;9.11;59.89;102289.59;5028099;28;20053;-60
2021/10/27 06:05:33;;;;;;;12.98;7.30;;;;;;;9.12;59.88;102296.56;5025999;28;20038;-59
2021/10/27 06:07:59;;;;;;;14.02;7.10;;;;;;;9.10;60.06;102298.38;5028222;28;20091;-59
2021/10/27 06:10:26;;;;;;;18.75;7.78;;;;;;;9.11;59.97;102300.06;5028217;28;20050;-60
2021/10/27 06:12:58;;;;;;;16.90;8.10;;;;;;;9.09;60.21;102298.38;5027838;28;20084;-61
2021/10/27 06:15:25;;;;;;;20.23;7.60;;;;;;;9.08;60.23;102304.56;5028201;28;20526;-61
2021/10/27 06:17:52;;;;;;;24.92;8.13;;;;;;;9.08;60.45;102304.56;5025421;28;20491;-61
2021/10/27 06:20:19;;;;;;;16.63;8.13;;;;;;;9.09;60.32;102304.50;5028570;28;20099;-61
2021/10/27 06:22:46;;;;;;;17.48;8.07;;;;;;;9.11;60.30;102312.31;5028302;28;20053;-60
2021/10/27 06:25:13;;;;;;;16.95;8.23;;;;;;;9.10;60.34;102314.09;5024080;28;20092;-60
2021/10/27 06:27:43;;;;;;;15.40;8.07;;;;;;;9.12;60.48;102316.66;5025881;28;20045;-64
2021/10/27 06:30:27;;;;;;;13.88;8.18;;;;;;;9.11;60.61;102322.78;5027697;28;20049;-72
2021/10/27 06:35:30;;;;;;;21.25;9.02;;;;;;;9.15;60.51;102334.91;5032101;28;20494;-62
2021/10/27 06:38:22;;;;;;;16.02;8.85;;;;;;;9.19;60.64;102341.78;5012184;28;20104;-59
2021/10/27 06:46:35;;;;;;;19.92;9.30;;;;;;;9.37;60.51;102344.84;5012406;28;20411;-59
2021/10/27 06:49:02;;;;;;;16.42;8.45;;;;;;;9.42;60.60;102350.81;5012212;28;20478;-60
2021/10/27 06:51:29;;;;;;;23.55;9.13;;;;;;;9.47;60.71;102355.06;5012279;28;20449;-60
2021/10/27 06:53:56;;;;;;;15.40;8.82;;;;;;;9.55;60.38;102357.47;5020446;28;20054;-60
2021/10/27 06:56:23;;;;;;;16.83;9.55;;;;;;;9.67;60.26;102361.50;5031315;28;20472;-60
2021/10/27 06:59:11;;;;;;;17.77;9.35;;;;;;;9.84;60.01;102365.44;5031120;28;20556;-60
2021/10/27 07:15:15;;;;;;;14.43;9.00;;;;;;;11.25;57.13;102367.38;5027019;28;20046;-59
2021/10/27 07:17:53;;;;;;;16.95;9.65;;;;;;;11.36;57.03;102377.50;5028478;28;20060;-61
2021/10/27 07:20:22;;;;;;;18.45;9.35;;;;;;;11.48;56.95;102370.97;5028676;28;20529;-60
2021/10/27 07:22:50;;;;;;;17.13;9.95;;;;;;;11.55;56.94;102377.75;5030305;28;20046;-61
2021/10/27 07:25:17;;;;;;;17.85;9.02;;;;;;;11.72;56.82;102383.28;5027377;28;20409;-62
2021/10/27 07:27:45;;;;;;;17.60;9.68;;;;;;;11.90;56.76;102381.75;5029943;28;20132;-61
2021/10/27 07:30:13;;;;;;;15.82;8.75;;;;;;;12.07;56.49;102390.84;5029176;28;20060;-61
2021/10/27 07:32:40;;;;;;;16.42;8.73;;;;;;;12.16;56.64;102400.19;5029581;28;20556;-60
2021/10/27 07:40:38;;;;;;;21.60;9.75;;;;;;;12.69;55.89;102386.75;5029374;28;20501;-60
2021/10/27 07:43:12;;;;;;;17.80;9.82;;;;;;;12.86;55.65;102396.63;5028893;28;20049;-61
2021/10/27 07:45:40;;;;;;;15.40;8.80;;;;;;;12.95;55.38;102387.50;5028294;28;20435;-60
2021/10/27 07:48:08;;;;;;;13.90;7.93;;;;;;;13.09;55.20;102379.06;5029758;28;20045;-60
2021/10/27 07:50:37;;;;;;;13.90;8.43;;;;;;;13.26;54.99;102388.03;5030131;28;20073;-62
2021/10/27 07:53:07;;;;;;;13.43;7.57;;;;;;;13.43;54.21;102384.72;5030238;28;20045;-60
2021/10/27 07:55:35;;;;;;;19.25;8.00;;;;;;;13.57;53.92;102387.59;5027263;28;20103;-63
2021/10/27 07:58:02;;;;;;;11.88;7.78;;;;;;;13.76;53.45;102379.75;5030260;28;20115;-63
2021/10/27 08:00:29;;;;;;;14.75;8.50;;;;;;;13.94;53.35;102378.09;5029356;28;20516;-62
2021/10/27 08:03:03;;;;;;;18.30;8.45;;;;;;;14.03;53.01;102385.59;5028426;28;20041;-60
2021/10/27 08:05:37;;;;;;;13.30;8.07;;;;;;;14.27;52.44;102387.19;5028725;28;20041;-59
2021/10/27 08:08:06;;;;;;;14.93;8.45;;;;;;;14.47;51.60;102379.19;5028817;28;20049;-60
2021/10/27 08:10:32;;;;;;;16.88;8.55;;;;;;;14.53;51.49;102380.72;5028335;28;20939;-61
2021/10/27 08:13:00;;;;;;;16.23;8.23;;;;;;;14.68;50.65;102385.28;5029145;28;20048;-64
2021/10/27 08:15:28;;;;;;;15.02;8.80;;;;;;;14.81;50.16;102396.13;5029070;28;20461;-67
2021/10/27 08:17:55;;;;;;;19.88;8.57;;;;;;;14.92;49.95;102392.97;5029607;28;20490;-62
2021/10/27 08:20:24;;;;;;;16.65;8.93;;;;;;;15.10;49.51;102400.94;5030046;28;20100;-62
2021/10/27 08:22:57;;;;;;;13.30;8.40;;;;;;;15.24;49.09;102400.25;5029129;28;20038;-64
2021/10/27 08:27:51;;;;;;;13.10;7.53;;;;;;;15.62;48.21;102393.00;5027889;28;20053;-66
2021/10/27 08:30:20;;;;;;;14.68;8.10;;;;;;;15.67;47.90;102393.63;5019633;28;20662;-60
2021/10/27 08:32:55;;;;;;;14.43;7.80;;;;;;;15.79;47.76;102396.56;5028562;28;20494;-60
2021/10/27 08:35:22;;;;;;;21.13;8.32;;;;;;;15.91;47.53;102389.81;5029278;28;20050;-64
2021/10/27 08:37:49;;;;;;;13.63;8.43;;;;;;;16.03;47.28;102388.31;5029464;28;20060;-60
2021/10/27 08:40:19;;;;;;;16.85;7.82;;;;;;;16.22;46.59;102390.81;5029649;28;20057;-66
2021/10/27 08:42:46;;;;;;;12.80;8.20;;;;;;;16.30;46.37;102388.59;5029313;28;20053;-61
2021/10/27 08:45:14;;;;;;;10.57;6.82;;;;;;;16.46;45.86;102392.13;5029674;28;20053;-60
2021/10/27 08:47:41;;;;;;;15.60;6.88;;;;;;;16.63;45.73;102393.84;5029302;28;20041;-60
2021/10/27 08:50:11;;;;;;;13.73;7.47;;;;;;;16.82;44.85;102395.44;5028727;28;20091;-60
2021/10/27 08:52:39;;;;;;;10.90;7.97;;;;;;;16.98;44.73;102387.50;5029281;28;20045;-60
2021/10/27 08:55:07;;;;;;;14.65;8.75;;;;;;;17.05;44.67;102391.53;5029871;28;20064;-62
2021/10/27 08:57:35;;;;;;;12.27;7.82;;;;;;;17.28;44.41;102391.97;5029100;28;20095;-60
2021/10/27 09:02:55;;;;;;;12.30;7.38;;;;;;;17.54;43.46;102397.53;5029242;28;20041;-61
2021/10/27 09:08:41;;;;;;;11.27;7.20;;;;;;;17.99;42.80;102385.09;5029279;28;20045;-59
2021/10/27 09:16:32;;;;;;;11.88;7.25;;;;;;;18.54;41.24;102391.38;5029006;28;20132;-61
2021/10/27 10:06:47;;;;;;;11.50;5.78;;;;;;;21.37;33.46;102357.47;5027399;28;20053;-60
2021/10/27 10:09:15;;;;;;;11.32;5.28;;;;;;;21.45;33.20;102355.06;5032209;28;20092;-61
2021/10/27 10:11:42;;;;;;;9.88;4.97;;;;;;;21.53;32.85;102360.66;5032289;28;20052;-60
2021/10/27 10:14:12;;;;;;;9.82;5.13;;;;;;;21.60;32.78;102355.72;5031634;28;20136;-62
2021/10/27 10:16:54;;;;;;;7.68;4.72;;;;;;;21.71;32.59;102354.03;5032306;28;20543;-62
2021/10/27 10:19:33;;;;;;;11.00;4.60;;;;;;;21.75;32.19;102352.81;5031604;28;20440;-62
2021/10/27 10:21:59;;;;;;;6.82;4.40;;;;;;;21.90;31.64;102348.06;5032100;28;20049;-61
2021/10/27 10:24:37;;;;;;;10.07;4.93;;;;;;;21.88;31.57;102350.88;5031534;28;20045;-68
2021/10/27 10:27:14;;;;;;;12.75;4.95;;;;;;;21.97;31.40;102350.13;5029026;28;20037;-61
2021/10/27 10:32:22;;;;;;;13.00;5.68;;;;;;;22.16;31.06;102351.34;5030830;28;20046;-60
2021/10/27 10:34:56;;;;;;;12.35;4.95;;;;;;;22.14;31.21;102342.56;5030391;28;20041;-61
2021/10/27 10:38:00;;;;;;;10.60;5.43;;;;;;;22.29;31.10;102346.66;5029204;28;20452;-60
2021/10/27 10:40:47;;;;;;;9.35;5.47;;;;;;;22.37;30.89;102345.25;5030989;28;20046;-59
2021/10/27 11:39:44;;;;;;;9.75;4.55;;;;;;;23.30;29.66;102283.00;5030558;28;20308;-59
2021/10/27 11:44:59;;;;;;;9.50;4.38;;;;;;;23.49;28.95;102273.38;5030449;28;20099;-62
2021/10/27 11:47:42;;;;;;;7.32;4.32;;;;;;;23.59;28.33;102276.06;5030657;28;20099;-60
2021/10/27 11:50:19;;;;;;;6.35;4.28;;;;;;;23.51;28.36;102274.06;5030317;28;20085;-60
2021/10/27 11:52:50;;;;;;;8.32;4.50;;;;;;;23.64;28.00;102269.34;5030240;28;20460;-66
2021/10/27 11:55:19;;;;;;;8.30;4.40;;;;;;;23.74;28.04;102263.16;5030103;28;20049;-60
2021/10/27 11:57:47;;;;;;;5.10;4.03;;;;;;;23.82;27.63;102263.31;5030446;28;20046;-61
2021/10/27 12:00:39;;;;;;;8.88;4.25;;;;;;;23.95;27.55;102255.91;5029893;28;20056;-63
2021/10/27 12:05:51;;;;;;;10.45;5.32;;;;;;;24.14;27.58;102254.25;5029695;28;20037;-70
2021/10/27 12:14:00;;;;;;;4.97;3.58;;;;;;;24.33;27.28;102225.72;5029741;28;20459;-59
2021/10/27 12:19:01;;;;;;;5.57;4.15;;;;;;;24.42;26.72;102220.34;5029014;28;20057;-62
2021/10/27 12:21:29;;;;;;;6.47;4.05;;;;;;;24.50;26.46;102216.13;5027510;28;20103;-61
2021/10/27 12:23:56;;;;;;;5.13;4.13;;;;;;;24.47;26.23;102211.88;5029252;28;20111;-61
2021/10/27 12:26:24;;;;;;;10.13;4.63;;;;;;;24.38;26.47;102220.75;5029692;28;20099;-67
2021/10/27 12:29:12;;;;;;;7.53;4.60;;;;;;;24.52;26.07;102208.75;5029386;28;20487;-61
2021/10/27 12:31:39;;;;;;;6.25;4.00;;;;;;;24.48;26.06;102204.66;5028972;28;20512;-61
2021/10/27 12:34:27;;;;;;;6.57;3.63;;;;;;;24.65;26.09;102200.44;5025992;28;20472;-60
2021/10/27 12:36:59;;;;;;;7.07;4.50;;;;;;;24.74;25.95;102202.25;5026127;28;20050;-61
2021/10/27 12:39:45;;;;;;;6.53;4.35;;;;;;;24.77;26.03;102194.75;5029493;28;20094;-60
2021/10/27 12:42:13;;;;;;;7.20;4.40;;;;;;;24.82;26.16;102199.69;5029571;28;20095;-60
2021/10/27 12:44:54;;;;;;;5.13;3.83;;;;;;;24.90;25.97;102199.81;5029387;28;20061;-60
2021/10/27 12:47:23;;;;;;;5.72;4.22;;;;;;;24.93;26.01;102191.44;5029547;28;20119;-63
2021/10/27 12:50:02;;;;;;;5.45;4.18;;;;;;;24.94;25.99;102187.78;5028688;28;20395;-64
2021/10/27 12:52:32;;;;;;;9.35;4.85;;;;;;;24.97;25.93;102183.94;5029485;28;20052;-60
2021/10/27 12:55:15;;;;;;;6.68;4.70;;;;;;;24.99;25.85;102186.47;5029177;28;20263;-59
2021/10/27 12:58:20;;;;;;;6.60;4.55;;;;;;;25.03;25.63;102182.53;5028936;28;20049;-59
2021/10/27 13:12:09;;;;;;;6.57;4.70;;;;;;;24.98;25.87;102169.53;5028891;28;20091;-60
2021/10/27 13:31:14;;;;;;;6.20;4.18;;;;;;;25.01;26.11;102153.13;5048542;28;20091;-63
2021/10/27 13:33:42;;;;;;;5.00;4.32;;;;;;;24.94;26.28;102157.41;5047914;28;20045;-59
2021/10/27 13:36:11;;;;;;;6.47;4.38;;;;;;;24.92;26.23;102151.31;5033854;28;20045;-62
2021/10/27 13:38:37;;;;;;;6.53;4.20;;;;;;;24.93;26.40;102147.66;5028568;28;20103;-62
2021/10/27 13:41:06;;;;;;;10.73;5.20;;;;;;;24.83;26.55;102161.09;5028398;28;20049;-62
2021/10/27 14:07:53;;;;;;;7.88;5.00;;;;;;;24.48;27.02;102134.91;5028463;28;20045;-61
2021/10/27 14:10:58;;;;;;;6.68;4.68;;;;;;;24.33;26.88;102137.19;5028607;28;20055;-61
2021/10/27 15:21:28;;;;;;;8.13;6.05;;;;;;;21.96;32.34;102107.03;5029884;28;20045;-61
2021/10/27 15:29:57;;;;;;;27.63;17.17;;;;;;;21.45;34.05;102109.34;5030133;28;20057;-60
2021/10/27 15:32:31;;;;;;;16.85;10.13;;;;;;;21.27;34.67;102106.34;5011117;28;20446;-59
2021/10/27 15:50:51;;;;;;;16.38;10.70;;;;;;;19.62;39.37;102106.44;5028886;28;20493;-63
2021/10/27 15:53:19;;;;;;;18.10;11.07;;;;;;;19.42;40.09;102111.41;5028563;28;20485;-65
2021/10/27 15:55:45;;;;;;;19.13;10.45;;;;;;;19.28;40.15;102106.25;5030711;28;20106;-63
2021/10/27 15:58:12;;;;;;;13.48;8.43;;;;;;;19.13;40.95;102110.84;5030917;28;20056;-59
2021/10/27 16:00:40;;;;;;;12.00;8.75;;;;;;;19.01;41.36;102111.75;5030512;28;20394;-59
2021/10/27 16:03:08;;;;;;;14.35;8.07;;;;;;;18.89;41.44;102113.41;5030175;28;20084;-60
2021/10/27 16:05:41;;;;;;;17.23;8.65;;;;;;;18.78;41.53;102114.16;5029150;28;20565;-61
2021/10/27 16:08:11;;;;;;;15.52;7.95;;;;;;;18.64;42.01;102119.56;5030040;28;20037;-59
2021/10/27 16:10:38;;;;;;;12.80;7.97;;;;;;;18.50;42.16;102113.41;5029913;28;20135;-61
2021/10/27 16:13:06;;;;;;;17.15;10.10;;;;;;;18.44;42.18;102116.50;5029044;28;20115;-60
2021/10/27 16:15:38;;;;;;;19.48;10.70;;;;;;;18.32;42.74;102112.00;5021841;28;20095;-60
2021/10/27 16:18:13;;;;;;;23.92;13.70;;;;;;;18.17;42.83;102108.56;5029965;28;20072;-61
2021/10/27 16:20:41;;;;;;;14.82;9.63;;;;;;;18.07;43.38;102113.66;5030000;28;20489;-59
2021/10/27 16:23:09;;;;;;;13.57;8.05;;;;;;;17.97;43.50;102113.41;5030254;28;20049;-59
2021/10/27 16:25:35;;;;;;;24.88;8.35;;;;;;;17.89;43.57;102115.69;5029310;28;20099;-61
2021/10/27 16:28:03;;;;;;;27.17;8.48;;;;;;;17.81;43.90;102110.88;5029978;28;20551;-60
2021/10/27 16:30:30;;;;;;;28.23;10.25;;;;;;;17.74;43.65;102114.91;5029912;28;20061;-60
2021/10/27 16:32:57;;;;;;;29.63;9.32;;;;;;;17.63;44.01;102115.59;5029737;28;20041;-60
2021/10/27 16:35:24;;;;;;;28.90;11.88;;;;;;;17.54;44.22;102118.84;5030017;28;20092;-61